Dousman, WI

4:34 AM CST on February 21, 2017 (GMT -0600)
Scuppernong Heights | | Change Station

Elev 886 ft 43.00 °N, 88.46 °W | Updated 4 minutes ago

Overcast
Overcast
53.5 °F
Feels Like 53.5 °F
N
1.0
Wind Variable Wind from NNE

Today
High -- | Low -- °F
--% Chance of Precip.
Yesterday
High -- | Low -- °F
Precip. -- in
Pressure 29.87 in
Visibility 7.0 miles
Clouds Mostly Cloudy 700 ft
Mostly Cloudy 2000 ft
Overcast 2900 ft
Dew Point 52 °F
Humidity 96%
Rainfall 0.11 in
Snow Depth Not available.
6:42 AM 5:33 PM
Waning Crescent, 26% visible
METAR KUES 211015Z AUTO 22006KT 7SM BKN007 BKN020 OVC029 11/11 A2987 RMK AO2
Pressure 29.87 in
Visibility 7.0 miles
Clouds Mostly Cloudy 700 ft
Mostly Cloudy 2000 ft
Overcast 2900 ft
Dew Point 52 °F
Humidity 96%
Rainfall 0.11 in
Snow Depth Not available.
6:42 AM 5:33 PM
Waning Crescent, 26% visible
METAR KUES 211015Z AUTO 22006KT 7SM BKN007 BKN020 OVC029 11/11 A2987 RMK AO2

Get Your Daily Forecast Email!

Thanks for signing up!

Be on the lookout for a verification email in your inbox.

You'll start receiving the daily forecast at 8 AM.

×

10-Day Weather Forecast

Almanac

Astronomy

Feb. 21, 2017 Rise Set
Actual Time
Civil Twilight
Nautical Twilight
Astronomical Twilight
Moon
Length of Visible Light
Length of Day
Tomorrow will be .
, % of the Moon is Illuminated

Today's Extremes

State Highs State Lows

Community

WunderPhotos

Upload Photos

1,962,540 photos uploaded!

WunderBlog® & News

Nearby

Air Quality

  Air Quality AQ Index Pollutant
Not available.

Snow Depth

Station Depth Elevation

Earthquake Activity

City Distance Mag. Time & Date
Minimum magnitude displayed is 2.5.

Coastal Water Temperatures

Place Temperature

Stations

Nearby Weather Stations

Station Location Temp. Windchill Dew Point Humidity Wind Precip. Elev Updated Type
                   

Watches & Warnings

There are currently no watches in effect.